createdAt,value
2022-09-18T00:02:29.015Z,101672.17
2022-09-18T00:04:58.572Z,101665.25
2022-09-18T00:07:27.811Z,101661.67
2022-09-18T00:09:57.227Z,101661.31
2022-09-18T00:12:26.495Z,101651.52
2022-09-18T00:14:56.692Z,101646.86
2022-09-18T00:17:25.892Z,101647.98
2022-09-18T00:19:55.144Z,101657.97
2022-09-18T00:22:24.348Z,101655.55
2022-09-18T00:24:53.738Z,101664.50
2022-09-18T00:27:22.990Z,101673.48
2022-09-18T00:29:52.360Z,101681.31
2022-09-18T00:32:21.586Z,101670.82
2022-09-18T00:34:51.413Z,101660.33
2022-09-18T00:37:20.836Z,101651.13
2022-09-18T00:39:50.065Z,101646.56
2022-09-18T00:42:21.254Z,101636.52
2022-09-18T00:44:52.296Z,101643.25
2022-09-18T00:47:27.542Z,101635.64
2022-09-18T00:49:59.930Z,101635.11
2022-09-18T00:52:32.330Z,101647.20
2022-09-18T00:55:04.396Z,101638.59
2022-09-18T00:57:35.894Z,101633.73
2022-09-18T01:00:09.189Z,101637.75
2022-09-18T01:02:39.950Z,101640.91
2022-09-18T01:05:11.136Z,101641.19
2022-09-18T01:07:46.512Z,101647.11
2022-09-18T01:10:37.277Z,101642.28
2022-09-18T01:13:18.252Z,101645.82
2022-09-18T01:16:14.654Z,101647.11
2022-09-18T01:18:50.024Z,101651.14
2022-09-18T01:21:21.301Z,101641.73
2022-09-18T01:24:13.551Z,101639.59
2022-09-18T01:27:02.829Z,101640.66
2022-09-18T01:29:58.189Z,101643.57
2022-09-18T01:32:33.027Z,101651.42
2022-09-18T01:35:40.986Z,101652.30
2022-09-18T01:38:04.943Z,101655.89
2022-09-18T01:40:41.448Z,101657.36
2022-09-18T01:43:12.345Z,101658.80
2022-09-18T01:45:51.215Z,101654.31
2022-09-18T01:48:27.812Z,101655.13
2022-09-18T01:51:04.244Z,101642.47
2022-09-18T01:53:36.832Z,101646.56
2022-09-18T01:56:09.040Z,101647.05
2022-09-18T01:58:39.418Z,101643.79
2022-09-18T02:01:13.288Z,101635.71
2022-09-18T02:03:48.805Z,101637.62
2022-09-18T02:06:21.358Z,101636.36
2022-09-18T02:08:55.262Z,101635.29
2022-09-18T02:11:25.138Z,101635.88
2022-09-18T02:14:17.682Z,101633.75
2022-09-18T02:17:09.471Z,101632.68
2022-09-18T02:19:44.081Z,101628.36
2022-09-18T02:22:16.125Z,101626.00
2022-09-18T02:24:49.546Z,101627.21
2022-09-18T02:27:20.069Z,101632.09
2022-09-18T02:29:51.220Z,101629.42
2022-09-18T02:32:20.532Z,101617.84
2022-09-18T02:34:50.257Z,101613.60
2022-09-18T02:37:35.017Z,101614.61
2022-09-18T02:40:19.601Z,101596.77
2022-09-18T02:43:11.826Z,101606.05
2022-09-18T02:45:50.395Z,101591.29
2022-09-18T02:48:44.026Z,101590.61
2022-09-18T02:51:17.268Z,101592.56
2022-09-18T02:53:57.710Z,101596.42
2022-09-18T02:56:45.219Z,101602.57
2022-09-18T02:59:17.764Z,101604.91
2022-09-18T03:01:49.104Z,101601.69
2022-09-18T03:04:26.196Z,101603.53
2022-09-18T03:06:59.955Z,101607.50
2022-09-18T03:09:30.207Z,101608.19
2022-09-18T03:11:59.528Z,101606.18
2022-09-18T03:14:29.368Z,101592.89
2022-09-18T03:16:58.624Z,101595.33
2022-09-18T03:19:27.933Z,101591.02
2022-09-18T03:21:58.948Z,101588.58
2022-09-18T03:24:30.095Z,101582.37
2022-09-18T03:26:59.802Z,101586.75
2022-09-18T03:29:30.268Z,101586.97
2022-09-18T03:32:00.723Z,101581.05
2022-09-18T03:34:30.425Z,101583.89
2022-09-18T03:36:59.828Z,101571.56
2022-09-18T03:39:29.315Z,101571.03
2022-09-18T03:41:59.905Z,101572.37
2022-09-18T03:44:29.615Z,101580.74
2022-09-18T03:47:00.746Z,101572.94
2022-09-18T03:49:30.241Z,101568.67
2022-09-18T03:51:59.437Z,101571.92
2022-09-18T03:54:30.417Z,101567.16
2022-09-18T03:57:07.411Z,101563.62
2022-09-18T03:59:56.805Z,101564.65
2022-09-18T04:02:44.886Z,101571.73
2022-09-18T04:05:32.424Z,101570.98
2022-09-18T04:08:19.214Z,101574.49
2022-09-18T04:10:50.192Z,101577.33
2022-09-18T04:13:19.976Z,101578.95
2022-09-18T04:15:50.436Z,101568.76
2022-09-18T04:18:20.107Z,101566.27
2022-09-18T04:20:51.303Z,101578.77
2022-09-18T04:23:20.847Z,101571.14
2022-09-18T04:25:50.356Z,101569.39
2022-09-18T04:28:20.299Z,101562.30
2022-09-18T04:30:49.960Z,101559.53
2022-09-18T04:33:19.389Z,101558.36
2022-09-18T04:35:49.365Z,101553.15
2022-09-18T04:38:19.446Z,101554.22
2022-09-18T04:40:51.897Z,101565.27
2022-09-18T04:43:21.616Z,101564.45
2022-09-18T04:45:51.168Z,101571.27
2022-09-18T04:48:21.354Z,101567.25
2022-09-18T04:50:51.174Z,101582.42
2022-09-18T04:53:20.919Z,101583.03
2022-09-18T04:55:50.456Z,101599.25
2022-09-18T04:58:21.041Z,101595.77
2022-09-18T05:00:52.068Z,101590.35
2022-09-18T05:03:22.887Z,101588.61
2022-09-18T05:05:52.724Z,101586.97
2022-09-18T05:08:23.417Z,101583.13
2022-09-18T05:10:53.433Z,101582.06
2022-09-18T05:13:24.103Z,101583.41
2022-09-18T05:15:59.003Z,101570.67
2022-09-18T05:18:30.336Z,101577.66
2022-09-18T05:21:04.901Z,101574.48
2022-09-18T05:23:35.082Z,101566.16
2022-09-18T05:26:04.440Z,101571.63
2022-09-18T05:28:34.237Z,101565.91
2022-09-18T05:31:04.376Z,101567.25
2022-09-18T05:33:36.664Z,101563.84
2022-09-18T05:36:06.418Z,101565.50
2022-09-18T05:38:36.085Z,101560.67
2022-09-18T05:41:06.978Z,101554.20
2022-09-18T05:43:36.370Z,101563.42
2022-09-18T05:46:07.555Z,101560.77
2022-09-18T05:48:38.762Z,101559.63
2022-09-18T05:51:08.777Z,101560.79
2022-09-18T05:53:38.150Z,101559.92
2022-09-18T05:56:09.092Z,101562.32
2022-09-18T05:58:38.371Z,101562.06
2022-09-18T06:01:07.790Z,101569.61
2022-09-18T06:03:38.888Z,101564.20
2022-09-18T06:06:08.555Z,101564.73
2022-09-18T06:08:38.346Z,101569.61
2022-09-18T06:11:07.792Z,101558.02
2022-09-18T06:13:37.335Z,101558.05
2022-09-18T06:16:07.262Z,101560.23
2022-09-18T06:18:38.461Z,101562.95
2022-09-18T06:21:08.914Z,101556.56
2022-09-18T06:23:38.254Z,101548.06
2022-09-18T06:26:14.044Z,101544.85
2022-09-18T06:28:40.416Z,101546.99
2022-09-18T06:31:11.427Z,101551.84
2022-09-18T06:33:57.593Z,101561.30
2022-09-18T06:36:26.879Z,101555.14
2022-09-18T06:39:15.975Z,101555.70
2022-09-18T06:41:46.733Z,101557.71
2022-09-18T06:44:20.929Z,101549.64
2022-09-18T06:46:57.904Z,101552.14
2022-09-18T06:49:29.167Z,101556.48
2022-09-18T06:51:58.504Z,101560.30
2022-09-18T06:54:27.804Z,101556.86
2022-09-18T06:56:57.153Z,101549.09
2022-09-18T06:59:26.859Z,101546.73
2022-09-18T07:01:56.114Z,101545.71
2022-09-18T07:04:36.511Z,101543.66
2022-09-18T07:07:06.245Z,101543.69
2022-09-18T07:09:35.828Z,101544.27
2022-09-18T07:12:07.377Z,101541.56
2022-09-18T07:14:44.276Z,101545.13
2022-09-18T07:17:18.576Z,101534.08
2022-09-18T07:19:47.045Z,101543.88
2022-09-18T07:22:17.867Z,101536.88
2022-09-18T07:24:48.768Z,101534.27
2022-09-18T07:27:18.061Z,101538.37
2022-09-18T07:29:48.604Z,101527.93
2022-09-18T07:32:21.173Z,101526.13
2022-09-18T07:34:51.084Z,101532.02
2022-09-18T07:37:25.456Z,101530.22
2022-09-18T07:39:56.564Z,101521.07
2022-09-18T07:42:28.311Z,101532.73
2022-09-18T07:44:57.796Z,101527.89
2022-09-18T07:47:28.343Z,101542.45
2022-09-18T07:49:59.275Z,101546.15
2022-09-18T07:52:29.091Z,101547.95
2022-09-18T07:54:59.243Z,101544.05
2022-09-18T07:57:30.899Z,101549.44
2022-09-18T08:00:10.258Z,101550.60
2022-09-18T08:02:41.877Z,101538.19
2022-09-18T08:05:13.256Z,101532.79
2022-09-18T08:07:45.168Z,101543.00
2022-09-18T08:10:19.167Z,101536.57
2022-09-18T08:13:06.527Z,101540.35
2022-09-18T08:15:40.481Z,101529.33
2022-09-18T08:18:14.734Z,101538.01
2022-09-18T08:20:59.004Z,101536.97
2022-09-18T08:23:30.138Z,101536.16
2022-09-18T08:26:04.894Z,101533.73
2022-09-18T08:28:34.280Z,101539.16
2022-09-18T08:31:04.927Z,101535.39
2022-09-18T08:33:34.248Z,101537.08
2022-09-18T08:36:03.781Z,101549.31
2022-09-18T08:38:34.843Z,101547.28
2022-09-18T08:41:12.744Z,101551.45
2022-09-18T08:44:07.328Z,101556.64
2022-09-18T08:46:48.387Z,101552.36
2022-09-18T08:49:37.675Z,101552.37
2022-09-18T08:52:17.546Z,101554.56
2022-09-18T08:54:51.620Z,101557.55
2022-09-18T08:57:30.466Z,101563.50
2022-09-18T09:00:23.846Z,101567.34
2022-09-18T09:02:58.455Z,101564.40
2022-09-18T09:05:31.113Z,101570.59
2022-09-18T09:08:28.494Z,101570.75
2022-09-18T09:11:12.288Z,101552.80
2022-09-18T09:13:56.666Z,101570.05
2022-09-18T09:16:33.633Z,101561.36
2022-09-18T09:19:05.546Z,101558.05
2022-09-18T09:22:01.876Z,101557.01
2022-09-18T09:24:35.761Z,101554.58
2022-09-18T09:27:27.905Z,101532.69
2022-09-18T09:30:04.753Z,101534.06
2022-09-18T09:32:42.586Z,101535.75
2022-09-18T09:35:43.235Z,101535.20
2022-09-18T09:38:33.037Z,101533.34
2022-09-18T09:41:08.120Z,101522.82
2022-09-18T09:43:47.343Z,101518.80
2022-09-18T09:46:53.156Z,101519.11
2022-09-18T09:49:28.402Z,101517.28
2022-09-18T09:52:11.507Z,101524.59
2022-09-18T09:54:41.270Z,101521.35
2022-09-18T09:57:26.734Z,101523.81
2022-09-18T10:00:18.066Z,101524.14
2022-09-18T10:02:55.238Z,101533.09
2022-09-18T10:05:28.558Z,101529.79
2022-09-18T10:08:01.623Z,101531.22
2022-09-18T10:10:37.534Z,101534.30
2022-09-18T10:13:12.783Z,101532.59
2022-09-18T10:15:47.952Z,101536.23
2022-09-18T10:18:33.950Z,101529.03
2022-09-18T10:21:14.542Z,101528.03
2022-09-18T10:23:46.028Z,101529.21
2022-09-18T10:26:33.094Z,101527.62
2022-09-18T10:29:02.366Z,101532.24
2022-09-18T10:31:53.334Z,101517.39
2022-09-18T10:34:42.320Z,101521.17
2022-09-18T10:37:33.452Z,101512.50
2022-09-18T10:40:06.900Z,101501.11
2022-09-18T10:42:38.218Z,101525.96
2022-09-18T10:45:24.213Z,101525.96
2022-09-18T10:48:07.546Z,101531.06
2022-09-18T10:50:37.635Z,101528.25
2022-09-18T10:53:22.930Z,101544.45
2022-09-18T10:55:55.802Z,101561.19
2022-09-18T10:58:26.860Z,101562.62
2022-09-18T11:00:56.713Z,101565.14
2022-09-18T11:03:50.816Z,101553.21
2022-09-18T11:06:26.756Z,101553.96
2022-09-18T11:09:00.305Z,101547.47
2022-09-18T11:11:32.394Z,101548.48
2022-09-18T11:14:05.709Z,101550.83
2022-09-18T11:16:44.549Z,101544.92
2022-09-18T11:19:26.729Z,101536.41
2022-09-18T11:21:58.968Z,101530.33
2022-09-18T11:24:34.703Z,101537.52
2022-09-18T11:27:08.838Z,101531.76
2022-09-18T11:29:39.331Z,101534.28
2022-09-18T11:32:22.223Z,101545.24
2022-09-18T11:34:54.254Z,101547.77
2022-09-18T11:37:32.737Z,101546.96
2022-09-18T11:40:08.375Z,101558.03
2022-09-18T11:42:47.014Z,101568.87
2022-09-18T11:45:31.376Z,101569.69
2022-09-18T11:48:07.297Z,101570.86
2022-09-18T11:50:38.269Z,101579.83
2022-09-18T11:53:13.108Z,101573.89
2022-09-18T11:56:00.003Z,101586.44
2022-09-18T11:58:41.311Z,101593.73
2022-09-18T12:01:16.623Z,101593.59
2022-09-18T12:04:17.691Z,101595.28
2022-09-18T12:06:53.829Z,101600.95
2022-09-18T12:09:25.014Z,101584.36
2022-09-18T12:12:10.048Z,101582.42
2022-09-18T12:14:52.040Z,101584.65
2022-09-18T12:17:34.142Z,101579.79
2022-09-18T12:20:07.128Z,101574.09
2022-09-18T12:22:42.655Z,101577.19
2022-09-18T12:25:14.181Z,101576.98
2022-09-18T12:28:09.149Z,101562.41
2022-09-18T12:30:55.114Z,101560.23
2022-09-18T12:33:30.163Z,101563.89
2022-09-18T12:36:21.281Z,101564.91
2022-09-18T12:39:03.418Z,101570.89
2022-09-18T12:41:36.063Z,101569.84
2022-09-18T12:44:23.534Z,101569.97
2022-09-18T12:47:18.582Z,101571.04
2022-09-18T12:49:56.881Z,101567.55
2022-09-18T12:52:55.172Z,101562.64
2022-09-18T12:55:30.415Z,101552.91
2022-09-18T12:58:14.867Z,101554.73
2022-09-18T13:00:47.185Z,101543.83
2022-09-18T13:03:22.212Z,101543.30
2022-09-18T13:05:59.252Z,101542.74
2022-09-18T13:08:37.237Z,101542.54
2022-09-18T13:11:12.278Z,101547.34
2022-09-18T13:14:00.105Z,101545.02
2022-09-18T13:16:50.373Z,101535.63
2022-09-18T13:19:33.756Z,101537.77
2022-09-18T13:22:08.278Z,101532.90
2022-09-18T13:24:37.995Z,101540.47
2022-09-18T13:27:13.229Z,101540.40
2022-09-18T13:29:56.928Z,101546.58
2022-09-18T13:32:37.634Z,101553.24
2022-09-18T13:35:09.203Z,101548.62
2022-09-18T13:37:38.813Z,101550.27
2022-09-18T13:40:27.910Z,101539.63
2022-09-18T13:42:57.842Z,101538.63
2022-09-18T13:45:28.611Z,101534.94
2022-09-18T13:48:09.947Z,101538.29
2022-09-18T13:50:42.443Z,101533.78
2022-09-18T13:53:14.837Z,101541.09
2022-09-18T13:55:51.029Z,101530.42
2022-09-18T13:58:35.439Z,101528.55
2022-09-18T14:01:09.580Z,101527.72
2022-09-18T14:03:42.427Z,101528.00
2022-09-18T14:06:37.880Z,101538.78
2022-09-18T14:09:44.598Z,101540.41
2022-09-18T14:12:14.776Z,101544.78
2022-09-18T14:14:45.637Z,101543.27
2022-09-18T14:17:16.331Z,101541.55
2022-09-18T14:19:48.167Z,101537.98
2022-09-18T14:22:26.650Z,101534.95
2022-09-18T14:25:00.641Z,101537.86
2022-09-18T14:27:42.268Z,101539.67
2022-09-18T14:30:21.021Z,101535.34
2022-09-18T14:33:05.295Z,101539.84
2022-09-18T14:35:43.285Z,101538.50
2022-09-18T14:38:30.138Z,101541.20
2022-09-18T14:41:02.604Z,101540.86
2022-09-18T14:43:32.060Z,101539.19
2022-09-18T14:46:01.473Z,101539.70
2022-09-18T14:48:34.163Z,101539.56
2022-09-18T14:51:09.440Z,101542.47
2022-09-18T14:53:49.949Z,101539.77
2022-09-18T14:56:23.625Z,101534.06
2022-09-18T14:58:53.270Z,101532.41
2022-09-18T15:01:34.633Z,101528.14
2022-09-18T15:04:05.886Z,101527.60
2022-09-18T15:06:49.860Z,101530.62
2022-09-18T15:09:28.252Z,101532.25
2022-09-18T15:12:02.669Z,101535.22
2022-09-18T15:14:31.482Z,101518.29
2022-09-18T15:17:02.310Z,101523.09
2022-09-18T15:19:32.757Z,101524.68
2022-09-18T15:22:02.351Z,101521.98
2022-09-18T15:24:31.883Z,101516.88
2022-09-18T15:27:03.515Z,101510.70
2022-09-18T15:29:36.234Z,101511.28
2022-09-18T15:32:05.997Z,101504.82
2022-09-18T15:34:43.826Z,101501.84
2022-09-18T15:37:16.193Z,101502.94
2022-09-18T15:39:48.865Z,101506.19
2022-09-18T15:42:18.993Z,101498.91
2022-09-18T15:44:54.300Z,101512.16
2022-09-18T15:47:33.141Z,101514.04
2022-09-18T15:50:18.250Z,101518.56
2022-09-18T15:53:00.975Z,101504.30
2022-09-18T15:55:33.339Z,101496.80
2022-09-18T15:58:05.568Z,101508.34
2022-09-18T16:00:37.403Z,101507.81
2022-09-18T16:03:09.326Z,101505.97
2022-09-18T16:05:40.604Z,101503.83
2022-09-18T16:08:21.016Z,101506.83
2022-09-18T16:10:52.716Z,101504.69
2022-09-18T16:13:25.285Z,101518.18
2022-09-18T16:16:14.532Z,101528.75
2022-09-18T16:18:52.452Z,101513.92
2022-09-18T16:21:22.679Z,101526.33
2022-09-18T16:23:59.194Z,101528.75
2022-09-18T16:26:33.408Z,101533.80
2022-09-18T16:29:05.131Z,101528.08
2022-09-18T16:31:37.671Z,101531.77
2022-09-18T16:34:07.921Z,101533.52
2022-09-18T16:36:39.518Z,101542.67
2022-09-18T16:39:14.674Z,101543.39
2022-09-18T16:41:44.473Z,101556.99
2022-09-18T16:44:15.375Z,101568.55
2022-09-18T16:46:53.221Z,101571.92
2022-09-18T16:49:27.581Z,101575.75
2022-09-18T16:51:57.762Z,101580.97
2022-09-18T16:54:27.150Z,101575.95
2022-09-18T16:57:10.984Z,101581.22
2022-09-18T16:59:42.397Z,101577.22
2022-09-18T17:02:14.214Z,101585.98
2022-09-18T17:04:43.408Z,101591.80
2022-09-18T17:07:12.802Z,101587.42
2022-09-18T17:09:42.005Z,101587.02
2022-09-18T17:12:11.244Z,101585.04
2022-09-18T17:14:41.334Z,101582.00
2022-09-18T17:17:11.612Z,101581.06
2022-09-18T17:19:40.933Z,101586.69
2022-09-18T17:22:10.371Z,101591.28
2022-09-18T17:24:39.743Z,101590.56
2022-09-18T17:27:09.375Z,101600.83
2022-09-18T17:29:39.999Z,101602.23
2022-09-18T17:32:09.358Z,101612.03
2022-09-18T17:34:38.636Z,101619.03
2022-09-18T17:37:07.889Z,101635.84
2022-09-18T17:39:37.084Z,101643.59
2022-09-18T17:42:06.614Z,101645.75
2022-09-18T17:44:37.131Z,101633.58
2022-09-18T17:47:06.577Z,101641.08
2022-09-18T17:49:36.032Z,101633.09
2022-09-18T17:52:05.892Z,101634.16
2022-09-18T17:54:36.128Z,101631.00
2022-09-18T17:57:14.744Z,101632.28
2022-09-18T17:59:45.200Z,101622.34
2022-09-18T18:02:14.857Z,101634.27
2022-09-18T18:04:44.311Z,101636.31
2022-09-18T18:07:13.762Z,101632.81
2022-09-18T18:09:43.249Z,101637.05
2022-09-18T18:12:12.821Z,101636.41
2022-09-18T18:14:42.233Z,101636.05
2022-09-18T18:17:12.941Z,101634.98
2022-09-18T18:19:42.853Z,101641.53
2022-09-18T18:22:12.130Z,101639.66
2022-09-18T18:24:41.531Z,101639.41
2022-09-18T18:27:10.737Z,101634.25
2022-09-18T18:29:41.113Z,101634.36
2022-09-18T18:32:11.135Z,101637.50
2022-09-18T18:34:40.495Z,101631.73
2022-09-18T18:37:09.750Z,101633.95
2022-09-18T18:39:39.223Z,101636.63
2022-09-18T18:42:08.617Z,101653.11
2022-09-18T18:44:38.421Z,101649.20
2022-09-18T18:47:07.848Z,101655.84
2022-09-18T18:49:37.908Z,101666.27
2022-09-18T18:52:07.361Z,101662.92
2022-09-18T18:54:36.661Z,101666.59
2022-09-18T18:57:06.169Z,101681.08
2022-09-18T18:59:35.542Z,101679.52
2022-09-18T19:02:05.841Z,101679.51
2022-09-18T19:04:36.309Z,101681.42
2022-09-18T19:07:06.386Z,101680.08
2022-09-18T19:09:35.839Z,101685.81
2022-09-18T19:12:05.213Z,101685.81
2022-09-18T19:14:36.186Z,101698.94
2022-09-18T19:17:05.812Z,101703.97
2022-09-18T19:19:35.317Z,101708.53
2022-09-18T19:22:04.558Z,101708.45
2022-09-18T19:24:34.083Z,101708.88
2022-09-18T19:27:03.989Z,101709.23
2022-09-18T19:29:34.191Z,101705.33
2022-09-18T19:32:03.817Z,101717.30
2022-09-18T19:34:33.475Z,101712.67
2022-09-18T19:37:02.792Z,101714.95
2022-09-18T19:39:32.152Z,101719.26
2022-09-18T19:42:12.171Z,101730.65
2022-09-18T19:44:47.246Z,101731.13
2022-09-18T19:47:21.817Z,101731.66
2022-09-18T19:49:51.629Z,101726.50
2022-09-18T19:52:22.942Z,101726.69
2022-09-18T19:54:54.524Z,101720.84
2022-09-18T19:57:24.425Z,101728.31
2022-09-18T19:59:54.340Z,101724.90
2022-09-18T20:02:24.500Z,101723.14
2022-09-18T20:04:53.864Z,101728.51
2022-09-18T20:07:23.069Z,101733.75
2022-09-18T20:09:52.605Z,101731.38
2022-09-18T20:12:22.292Z,101735.05
2022-09-18T20:14:51.659Z,101736.62
2022-09-18T20:17:20.943Z,101737.22
2022-09-18T20:19:50.239Z,101742.05
2022-09-18T20:22:19.501Z,101739.73
2022-09-18T20:24:48.856Z,101746.44
2022-09-18T20:27:18.160Z,101745.67
2022-09-18T20:29:47.725Z,101742.17
2022-09-18T20:32:17.262Z,101749.65
2022-09-18T20:34:47.989Z,101762.75
2022-09-18T20:37:17.345Z,101760.97
2022-09-18T20:39:46.862Z,101758.33
2022-09-18T20:42:16.274Z,101760.28
2022-09-18T20:44:46.013Z,101750.22
2022-09-18T20:47:16.075Z,101753.16
2022-09-18T20:49:46.059Z,101741.80
2022-09-18T20:52:18.320Z,101749.21
2022-09-18T20:54:49.226Z,101747.53
2022-09-18T20:57:18.841Z,101754.89
2022-09-18T20:59:48.060Z,101753.57
2022-09-18T21:02:18.631Z,101755.02
2022-09-18T21:04:51.284Z,101759.25
2022-09-18T21:07:21.313Z,101761.36
2022-09-18T21:09:50.701Z,101758.55
2022-09-18T21:12:19.938Z,101757.48
2022-09-18T21:14:49.294Z,101765.54
2022-09-18T21:17:18.568Z,101767.65
2022-09-18T21:19:50.560Z,101762.14
2022-09-18T21:22:18.866Z,101769.14
2022-09-18T21:24:48.197Z,101766.41
2022-09-18T21:27:17.506Z,101772.80
2022-09-18T21:29:46.809Z,101774.75
2022-09-18T21:32:16.088Z,101780.17
2022-09-18T21:34:46.140Z,101782.72
2022-09-18T21:37:15.488Z,101774.14
2022-09-18T21:39:44.731Z,101782.56
2022-09-18T21:42:15.698Z,101782.56
2022-09-18T21:44:45.680Z,101788.98
2022-09-18T21:47:15.093Z,101783.77
2022-09-18T21:49:44.394Z,101788.41
2022-09-18T21:52:14.703Z,101788.41
2022-09-18T21:54:44.218Z,101791.91
2022-09-18T21:57:14.130Z,101788.75
2022-09-18T21:59:43.800Z,101796.13
2022-09-18T22:02:13.776Z,101799.63
2022-09-18T22:04:44.049Z,101797.23
2022-09-18T22:07:13.572Z,101794.49
2022-09-18T22:09:43.827Z,101799.05
2022-09-18T22:12:13.157Z,101800.83
2022-09-18T22:14:45.473Z,101800.92
2022-09-18T22:17:17.651Z,101811.61
2022-09-18T22:19:46.968Z,101805.71
2022-09-18T22:22:16.298Z,101811.08
2022-09-18T22:24:45.588Z,101801.89
2022-09-18T22:27:15.478Z,101815.84
2022-09-18T22:29:44.755Z,101820.91
2022-09-18T22:32:14.231Z,101827.00
2022-09-18T22:34:43.465Z,101823.73
2022-09-18T22:37:12.898Z,101821.34
2022-09-18T22:39:42.148Z,101819.47
2022-09-18T22:42:11.468Z,101818.04
2022-09-18T22:44:40.692Z,101824.98
2022-09-18T22:47:09.989Z,101819.33
2022-09-18T22:49:39.340Z,101827.09
2022-09-18T22:52:09.698Z,101821.00
2022-09-18T22:54:38.932Z,101822.84
2022-09-18T22:57:08.422Z,101822.78
2022-09-18T22:59:37.611Z,101828.67
2022-09-18T23:02:08.074Z,101830.02
2022-09-18T23:04:38.254Z,101832.12
2022-09-18T23:07:07.624Z,101832.94
2022-09-18T23:09:36.927Z,101833.46
2022-09-18T23:12:06.630Z,101837.16
2022-09-18T23:14:36.082Z,101830.16
2022-09-18T23:17:05.335Z,101834.72
2022-09-18T23:19:35.489Z,101837.16
2022-09-18T23:22:05.117Z,101836.64
2022-09-18T23:24:34.494Z,101831.80
2022-09-18T23:27:03.832Z,101832.70
2022-09-18T23:29:33.343Z,101834.56
2022-09-18T23:32:04.893Z,101829.44
2022-09-18T23:34:34.448Z,101824.94
2022-09-18T23:37:03.995Z,101828.81
2022-09-18T23:39:36.006Z,101835.67
2022-09-18T23:42:06.368Z,101830.45
2022-09-18T23:44:36.142Z,101833.89
2022-09-18T23:47:05.722Z,101831.21
2022-09-18T23:49:35.336Z,101840.37
2022-09-18T23:52:04.892Z,101841.48
2022-09-18T23:54:34.255Z,101843.72
2022-09-18T23:57:03.683Z,101838.64
2022-09-18T23:59:33.087Z,101840.56
